カーナーク/チューレ空軍基地 の空港の天気 - METARとTAF

チューレ空軍基地 ( BGTL / THU ) - グリーンランド カーナーク
飛行場実況気象(Metar)
観測時間05/26 19:14 ADT (05/26 22:14 UTC)
風向・風速西 3m/s
視程10km以上
天気現象
全天を覆う雲 雲底高度 910m
気温-1℃
湿度100%
気圧1000.9hPa
METARBGTL 262214Z AUTO 28006KT 9999 OVC030 M01/M01 A2960 RMK AO2 SLP009 TSNO $
過去の天気等 Google飛行場航空写真 Wunderground天気予報

過去48時間のMETAR

飛行場予報(TAF)
データがありません